Main page
METAR-TAF:

METAR-TAF

Airports :

Belgrade Nikola Tesla Airport

Belgrade, Serbia

latitude: 44-49N, longitude: 020-17E, elevation: 96 m

Current weather observation

The report was made 34 minutes ago, at 07:30 UTC
Wind 3 kt from variable directions
Temperature 28°C
Humidity 55%
Pressure 1013 hPa
Visibility 10 km or more
no clouds below 1500 m and no cumulonimbus

METAR: LYBE 300730Z VRB03KT CAVOK 28/18 Q1013 NOSIG

Time: 10:04 (08:04 UTC)

Forecast

The report was made 3 hours and 4 minutes ago, at 05:00 UTC
Forecast valid from 30 at 06 UTC to 31 at 06 UTC
Wind 6 kt from the North/Northeast
Visibility 10 km or more
no clouds below 1500 m and no cumulonimbus

TAF: LYBE 300500Z 3006/3106 02006KT CAVOK TX35/3013Z TN24/3103Z

Weather observations and forecasts of more than 4000 airports (METAR and TAF reports).

The available stations are represented by yellow and red dots on the map.

Hover mouse over dot to see the name of the station.

Then click to see weather observations and forecasts.

To change the map : click on the green buttons with a black cross to zoom in, on the green button with a dash to zoom out, or on the green arrows for adjacent maps.


METAR-TAF: